sensor_id;sensor_type;location;lat;lon;timestamp;temperature;humidity
22081;DHT22;11207;59.512;18.050;2023-05-07T00:01:53;1.20;99.90
22081;DHT22;11207;59.512;18.050;2023-05-07T00:04:19;1.10;99.90
22081;DHT22;11207;59.512;18.050;2023-05-07T00:06:44;1.10;99.90
22081;DHT22;11207;59.512;18.050;2023-05-07T00:09:10;1.10;99.90
22081;DHT22;11207;59.512;18.050;2023-05-07T00:11:36;0.90;99.90
22081;DHT22;11207;59.512;18.050;2023-05-07T00:14:02;0.90;99.90
22081;DHT22;11207;59.512;18.050;2023-05-07T00:16:27;0.90;99.90
22081;DHT22;11207;59.512;18.050;2023-05-07T00:18:53;0.90;99.90
22081;DHT22;11207;59.512;18.050;2023-05-07T00:21:19;0.80;99.90
22081;DHT22;11207;59.512;18.050;2023-05-07T00:23:44;0.80;99.90
22081;DHT22;11207;59.512;18.050;2023-05-07T00:26:10;0.70;99.90
22081;DHT22;11207;59.512;18.050;2023-05-07T00:28:35;0.70;99.90
22081;DHT22;11207;59.512;18.050;2023-05-07T00:31:01;0.60;99.90
22081;DHT22;11207;59.512;18.050;2023-05-07T00:33:26;0.60;99.90
22081;DHT22;11207;59.512;18.050;2023-05-07T00:35:52;0.50;99.90
22081;DHT22;11207;59.512;18.050;2023-05-07T00:38:19;0.40;99.90
22081;DHT22;11207;59.512;18.050;2023-05-07T00:40:45;0.40;99.90
22081;DHT22;11207;59.512;18.050;2023-05-07T00:43:11;0.30;99.90
22081;DHT22;11207;59.512;18.050;2023-05-07T00:45:38;0.30;99.90
22081;DHT22;11207;59.512;18.050;2023-05-07T00:48:04;0.30;99.90
22081;DHT22;11207;59.512;18.050;2023-05-07T00:50:30;0.20;99.90
22081;DHT22;11207;59.512;18.050;2023-05-07T00:52:56;0.20;99.90
22081;DHT22;11207;59.512;18.050;2023-05-07T00:55:23;0.20;99.90
22081;DHT22;11207;59.512;18.050;2023-05-07T00:57:50;0.20;99.90
22081;DHT22;11207;59.512;18.050;2023-05-07T01:00:16;0.30;99.90
22081;DHT22;11207;59.512;18.050;2023-05-07T01:02:43;0.20;99.90
22081;DHT22;11207;59.512;18.050;2023-05-07T01:05:12;0.20;99.90
22081;DHT22;11207;59.512;18.050;2023-05-07T01:07:40;0.30;99.90
22081;DHT22;11207;59.512;18.050;2023-05-07T01:10:06;0.30;99.90
22081;DHT22;11207;59.512;18.050;2023-05-07T01:12:33;0.30;99.90
22081;DHT22;11207;59.512;18.050;2023-05-07T01:14:59;0.30;99.90
22081;DHT22;11207;59.512;18.050;2023-05-07T01:17:25;0.20;99.90
22081;DHT22;11207;59.512;18.050;2023-05-07T01:19:51;0.30;99.90
22081;DHT22;11207;59.512;18.050;2023-05-07T01:22:31;0.30;99.90
22081;DHT22;11207;59.512;18.050;2023-05-07T01:24:58;0.20;99.90
22081;DHT22;11207;59.512;18.050;2023-05-07T01:27:25;0.20;99.90
22081;DHT22;11207;59.512;18.050;2023-05-07T01:29:50;0.20;99.90
22081;DHT22;11207;59.512;18.050;2023-05-07T01:32:22;0.20;99.90
22081;DHT22;11207;59.512;18.050;2023-05-07T01:34:53;0.20;99.90
22081;DHT22;11207;59.512;18.050;2023-05-07T01:37:20;0.20;99.90
22081;DHT22;11207;59.512;18.050;2023-05-07T01:39:46;0.10;99.90
22081;DHT22;11207;59.512;18.050;2023-05-07T01:42:12;0.10;99.90
22081;DHT22;11207;59.512;18.050;2023-05-07T01:44:38;0.10;99.90
22081;DHT22;11207;59.512;18.050;2023-05-07T01:47:04;0.10;99.90
22081;DHT22;11207;59.512;18.050;2023-05-07T01:49:30;0.00;99.90
22081;DHT22;11207;59.512;18.050;2023-05-07T01:51:56;0.00;99.90
22081;DHT22;11207;59.512;18.050;2023-05-07T01:54:26;0.00;99.90
22081;DHT22;11207;59.512;18.050;2023-05-07T01:56:53;-0.10;99.90
22081;DHT22;11207;59.512;18.050;2023-05-07T01:59:20;-0.10;99.90
22081;DHT22;11207;59.512;18.050;2023-05-07T02:01:46;-0.10;99.90
22081;DHT22;11207;59.512;18.050;2023-05-07T02:04:11;-0.10;99.90
22081;DHT22;11207;59.512;18.050;2023-05-07T02:06:37;-0.10;99.90
22081;DHT22;11207;59.512;18.050;2023-05-07T02:09:02;-0.10;99.90
22081;DHT22;11207;59.512;18.050;2023-05-07T02:11:28;-0.10;99.90
22081;DHT22;11207;59.512;18.050;2023-05-07T02:13:54;-0.10;99.90
22081;DHT22;11207;59.512;18.050;2023-05-07T02:16:19;-0.10;99.90
22081;DHT22;11207;59.512;18.050;2023-05-07T02:18:46;-0.20;99.90
22081;DHT22;11207;59.512;18.050;2023-05-07T02:21:12;-0.20;99.90
22081;DHT22;11207;59.512;18.050;2023-05-07T02:23:37;-0.20;99.90
22081;DHT22;11207;59.512;18.050;2023-05-07T02:26:04;-0.20;99.90
22081;DHT22;11207;59.512;18.050;2023-05-07T02:28:30;-0.30;99.90
22081;DHT22;11207;59.512;18.050;2023-05-07T02:30:55;-0.30;99.90
22081;DHT22;11207;59.512;18.050;2023-05-07T02:33:23;-0.30;99.90
22081;DHT22;11207;59.512;18.050;2023-05-07T02:35:49;-0.30;99.90
22081;DHT22;11207;59.512;18.050;2023-05-07T02:38:17;-0.30;99.90
22081;DHT22;11207;59.512;18.050;2023-05-07T02:40:42;-0.30;99.90
22081;DHT22;11207;59.512;18.050;2023-05-07T02:43:08;-0.30;99.90
22081;DHT22;11207;59.512;18.050;2023-05-07T02:45:34;-0.40;99.90
22081;DHT22;11207;59.512;18.050;2023-05-07T02:48:00;-0.40;99.90
22081;DHT22;11207;59.512;18.050;2023-05-07T02:50:26;-0.40;99.90
22081;DHT22;11207;59.512;18.050;2023-05-07T02:52:52;-0.40;99.90
22081;DHT22;11207;59.512;18.050;2023-05-07T02:55:18;-0.40;99.90
22081;DHT22;11207;59.512;18.050;2023-05-07T02:57:44;-0.40;99.90
22081;DHT22;11207;59.512;18.050;2023-05-07T03:00:16;-0.40;99.90
22081;DHT22;11207;59.512;18.050;2023-05-07T03:02:43;-0.50;99.90
22081;DHT22;11207;59.512;18.050;2023-05-07T03:05:09;-0.40;99.90
22081;DHT22;11207;59.512;18.050;2023-05-07T03:07:35;-0.50;99.90
22081;DHT22;11207;59.512;18.050;2023-05-07T03:10:02;-0.40;99.90
22081;DHT22;11207;59.512;18.050;2023-05-07T03:12:27;-0.40;99.90
22081;DHT22;11207;59.512;18.050;2023-05-07T03:14:53;-0.40;99.90
22081;DHT22;11207;59.512;18.050;2023-05-07T03:17:19;-0.40;99.90
22081;DHT22;11207;59.512;18.050;2023-05-07T03:19:45;-0.50;99.90
22081;DHT22;11207;59.512;18.050;2023-05-07T03:22:11;-0.50;99.90
22081;DHT22;11207;59.512;18.050;2023-05-07T03:24:36;-0.40;99.90
22081;DHT22;11207;59.512;18.050;2023-05-07T03:27:02;-0.40;99.90
22081;DHT22;11207;59.512;18.050;2023-05-07T03:29:27;-0.40;99.90
22081;DHT22;11207;59.512;18.050;2023-05-07T03:31:53;-0.40;99.90
22081;DHT22;11207;59.512;18.050;2023-05-07T03:34:18;-0.20;99.90
22081;DHT22;11207;59.512;18.050;2023-05-07T03:36:48;-0.30;99.90
22081;DHT22;11207;59.512;18.050;2023-05-07T03:39:14;-0.30;99.90
22081;DHT22;11207;59.512;18.050;2023-05-07T03:41:40;-0.30;99.90
22081;DHT22;11207;59.512;18.050;2023-05-07T03:44:05;-0.20;99.90
22081;DHT22;11207;59.512;18.050;2023-05-07T03:46:31;-0.20;99.90
22081;DHT22;11207;59.512;18.050;2023-05-07T03:48:58;-0.20;99.90
22081;DHT22;11207;59.512;18.050;2023-05-07T03:51:24;-0.20;99.90
22081;DHT22;11207;59.512;18.050;2023-05-07T03:53:50;-0.20;99.90
22081;DHT22;11207;59.512;18.050;2023-05-07T03:56:18;-0.20;99.90
22081;DHT22;11207;59.512;18.050;2023-05-07T03:58:44;-0.20;99.90
22081;DHT22;11207;59.512;18.050;2023-05-07T04:01:10;-0.20;99.90
22081;DHT22;11207;59.512;18.050;2023-05-07T04:03:36;-0.10;99.90
22081;DHT22;11207;59.512;18.050;2023-05-07T04:06:01;-0.10;99.90
22081;DHT22;11207;59.512;18.050;2023-05-07T04:08:27;0.00;99.90
22081;DHT22;11207;59.512;18.050;2023-05-07T04:10:56;0.10;99.90
22081;DHT22;11207;59.512;18.050;2023-05-07T04:13:22;0.10;99.90
22081;DHT22;11207;59.512;18.050;2023-05-07T04:15:47;0.10;99.90
22081;DHT22;11207;59.512;18.050;2023-05-07T04:18:14;0.10;99.90
22081;DHT22;11207;59.512;18.050;2023-05-07T04:20:40;0.10;99.90
22081;DHT22;11207;59.512;18.050;2023-05-07T04:23:06;0.00;99.90
22081;DHT22;11207;59.512;18.050;2023-05-07T04:25:32;0.00;99.90
22081;DHT22;11207;59.512;18.050;2023-05-07T04:27:58;0.10;99.90
22081;DHT22;11207;59.512;18.050;2023-05-07T04:30:24;0.10;99.90
22081;DHT22;11207;59.512;18.050;2023-05-07T04:32:50;0.10;99.90
22081;DHT22;11207;59.512;18.050;2023-05-07T04:35:16;0.10;99.90
22081;DHT22;11207;59.512;18.050;2023-05-07T04:37:42;0.20;99.90
22081;DHT22;11207;59.512;18.050;2023-05-07T04:40:07;0.30;99.90
22081;DHT22;11207;59.512;18.050;2023-05-07T04:42:33;0.40;99.90
22081;DHT22;11207;59.512;18.050;2023-05-07T04:44:59;0.60;99.90
22081;DHT22;11207;59.512;18.050;2023-05-07T04:47:25;0.60;99.90
22081;DHT22;11207;59.512;18.050;2023-05-07T04:49:51;0.90;99.90
22081;DHT22;11207;59.512;18.050;2023-05-07T04:52:18;1.10;99.90
22081;DHT22;11207;59.512;18.050;2023-05-07T04:54:43;1.20;99.90
22081;DHT22;11207;59.512;18.050;2023-05-07T04:57:09;1.30;99.90
22081;DHT22;11207;59.512;18.050;2023-05-07T04:59:34;1.50;99.90
22081;DHT22;11207;59.512;18.050;2023-05-07T05:02:00;1.70;99.90
22081;DHT22;11207;59.512;18.050;2023-05-07T05:04:26;2.00;99.90
22081;DHT22;11207;59.512;18.050;2023-05-07T05:06:52;2.20;99.90
22081;DHT22;11207;59.512;18.050;2023-05-07T05:09:18;2.60;99.90
22081;DHT22;11207;59.512;18.050;2023-05-07T05:11:44;2.70;99.90
22081;DHT22;11207;59.512;18.050;2023-05-07T05:14:09;3.00;99.90
22081;DHT22;11207;59.512;18.050;2023-05-07T05:16:35;3.10;99.90
22081;DHT22;11207;59.512;18.050;2023-05-07T05:19:01;3.30;99.90
22081;DHT22;11207;59.512;18.050;2023-05-07T05:21:27;3.50;99.90
22081;DHT22;11207;59.512;18.050;2023-05-07T05:23:52;3.70;99.90
22081;DHT22;11207;59.512;18.050;2023-05-07T05:26:18;3.90;99.90
22081;DHT22;11207;59.512;18.050;2023-05-07T05:28:44;4.00;99.90
22081;DHT22;11207;59.512;18.050;2023-05-07T05:31:10;4.10;99.90
22081;DHT22;11207;59.512;18.050;2023-05-07T05:33:35;4.30;99.90
22081;DHT22;11207;59.512;18.050;2023-05-07T05:36:01;4.40;99.90
22081;DHT22;11207;59.512;18.050;2023-05-07T05:38:27;4.40;99.90
22081;DHT22;11207;59.512;18.050;2023-05-07T05:40:52;4.50;99.90
22081;DHT22;11207;59.512;18.050;2023-05-07T05:43:18;4.50;99.90
22081;DHT22;11207;59.512;18.050;2023-05-07T05:45:43;4.50;99.90
22081;DHT22;11207;59.512;18.050;2023-05-07T05:48:09;4.60;99.90
22081;DHT22;11207;59.512;18.050;2023-05-07T05:50:35;4.60;99.90
22081;DHT22;11207;59.512;18.050;2023-05-07T05:53:03;4.60;99.90
22081;DHT22;11207;59.512;18.050;2023-05-07T05:55:29;4.70;99.90
22081;DHT22;11207;59.512;18.050;2023-05-07T05:57:55;4.80;99.90
22081;DHT22;11207;59.512;18.050;2023-05-07T06:00:22;4.90;99.90
22081;DHT22;11207;59.512;18.050;2023-05-07T06:02:48;5.10;99.90
22081;DHT22;11207;59.512;18.050;2023-05-07T06:05:13;5.20;99.90
22081;DHT22;11207;59.512;18.050;2023-05-07T06:07:40;5.30;99.90
22081;DHT22;11207;59.512;18.050;2023-05-07T06:10:06;5.50;99.90
22081;DHT22;11207;59.512;18.050;2023-05-07T06:12:32;5.70;99.90
22081;DHT22;11207;59.512;18.050;2023-05-07T06:14:57;5.70;99.90
22081;DHT22;11207;59.512;18.050;2023-05-07T06:17:23;5.80;99.90
22081;DHT22;11207;59.512;18.050;2023-05-07T06:19:48;6.00;99.90
22081;DHT22;11207;59.512;18.050;2023-05-07T06:22:14;5.90;99.90
22081;DHT22;11207;59.512;18.050;2023-05-07T06:24:40;6.10;99.90
22081;DHT22;11207;59.512;18.050;2023-05-07T06:27:07;6.30;99.90
22081;DHT22;11207;59.512;18.050;2023-05-07T06:29:32;6.40;99.90
22081;DHT22;11207;59.512;18.050;2023-05-07T06:32:12;6.40;99.90
22081;DHT22;11207;59.512;18.050;2023-05-07T06:34:39;6.40;99.90
22081;DHT22;11207;59.512;18.050;2023-05-07T06:37:05;6.40;99.90
22081;DHT22;11207;59.512;18.050;2023-05-07T06:39:31;6.30;99.90
22081;DHT22;11207;59.512;18.050;2023-05-07T06:41:57;6.60;99.90
22081;DHT22;11207;59.512;18.050;2023-05-07T06:44:22;6.70;99.90
22081;DHT22;11207;59.512;18.050;2023-05-07T06:46:48;6.80;99.90
22081;DHT22;11207;59.512;18.050;2023-05-07T06:49:14;6.80;99.90
22081;DHT22;11207;59.512;18.050;2023-05-07T06:51:39;6.70;99.90
22081;DHT22;11207;59.512;18.050;2023-05-07T06:54:05;6.80;99.90
22081;DHT22;11207;59.512;18.050;2023-05-07T06:56:31;6.90;99.90
22081;DHT22;11207;59.512;18.050;2023-05-07T06:58:57;7.00;99.90
22081;DHT22;11207;59.512;18.050;2023-05-07T07:01:22;7.10;99.90
22081;DHT22;11207;59.512;18.050;2023-05-07T07:03:48;7.20;99.90
22081;DHT22;11207;59.512;18.050;2023-05-07T07:06:14;7.20;99.90
22081;DHT22;11207;59.512;18.050;2023-05-07T07:08:40;7.40;99.90
22081;DHT22;11207;59.512;18.050;2023-05-07T07:11:06;7.50;99.90
22081;DHT22;11207;59.512;18.050;2023-05-07T07:13:31;7.50;99.90
22081;DHT22;11207;59.512;18.050;2023-05-07T07:15:57;7.60;99.90
22081;DHT22;11207;59.512;18.050;2023-05-07T07:18:23;7.70;99.90
22081;DHT22;11207;59.512;18.050;2023-05-07T07:20:49;7.70;99.90
22081;DHT22;11207;59.512;18.050;2023-05-07T07:23:14;7.80;99.90
22081;DHT22;11207;59.512;18.050;2023-05-07T07:25:40;8.00;99.90
22081;DHT22;11207;59.512;18.050;2023-05-07T07:28:07;8.30;99.90
22081;DHT22;11207;59.512;18.050;2023-05-07T07:30:32;8.40;99.90
22081;DHT22;11207;59.512;18.050;2023-05-07T07:32:58;8.60;99.90
22081;DHT22;11207;59.512;18.050;2023-05-07T07:35:29;8.70;99.90
22081;DHT22;11207;59.512;18.050;2023-05-07T07:37:54;8.70;99.80
22081;DHT22;11207;59.512;18.050;2023-05-07T07:40:20;8.90;99.50
22081;DHT22;11207;59.512;18.050;2023-05-07T07:42:46;9.20;99.70
22081;DHT22;11207;59.512;18.050;2023-05-07T07:45:11;9.20;97.50
22081;DHT22;11207;59.512;18.050;2023-05-07T07:47:38;9.40;98.40
22081;DHT22;11207;59.512;18.050;2023-05-07T07:50:04;9.50;96.90
22081;DHT22;11207;59.512;18.050;2023-05-07T07:52:31;9.60;97.40
22081;DHT22;11207;59.512;18.050;2023-05-07T07:54:56;9.80;98.00
22081;DHT22;11207;59.512;18.050;2023-05-07T07:57:22;9.90;97.20
22081;DHT22;11207;59.512;18.050;2023-05-07T07:59:47;10.10;96.40
22081;DHT22;11207;59.512;18.050;2023-05-07T08:02:13;10.00;94.80
22081;DHT22;11207;59.512;18.050;2023-05-07T08:04:38;10.20;94.30
22081;DHT22;11207;59.512;18.050;2023-05-07T08:07:04;10.30;93.50
22081;DHT22;11207;59.512;18.050;2023-05-07T08:09:31;10.40;95.40
22081;DHT22;11207;59.512;18.050;2023-05-07T08:11:57;10.50;94.90
22081;DHT22;11207;59.512;18.050;2023-05-07T08:14:22;10.60;95.10
22081;DHT22;11207;59.512;18.050;2023-05-07T08:16:48;10.70;95.10
22081;DHT22;11207;59.512;18.050;2023-05-07T08:19:14;10.80;94.30
22081;DHT22;11207;59.512;18.050;2023-05-07T08:21:39;11.00;93.80
22081;DHT22;11207;59.512;18.050;2023-05-07T08:24:06;11.20;96.00
22081;DHT22;11207;59.512;18.050;2023-05-07T08:26:31;11.30;91.60
22081;DHT22;11207;59.512;18.050;2023-05-07T08:28:57;11.30;91.80
22081;DHT22;11207;59.512;18.050;2023-05-07T08:31:23;11.20;86.70
22081;DHT22;11207;59.512;18.050;2023-05-07T08:33:50;11.30;91.20
22081;DHT22;11207;59.512;18.050;2023-05-07T08:36:15;11.50;91.90
22081;DHT22;11207;59.512;18.050;2023-05-07T08:38:41;11.50;89.00
22081;DHT22;11207;59.512;18.050;2023-05-07T08:41:10;11.70;93.80
22081;DHT22;11207;59.512;18.050;2023-05-07T08:43:38;11.90;91.90
22081;DHT22;11207;59.512;18.050;2023-05-07T08:46:06;11.80;84.30
22081;DHT22;11207;59.512;18.050;2023-05-07T08:48:34;11.70;90.20
22081;DHT22;11207;59.512;18.050;2023-05-07T08:51:00;12.00;90.30
22081;DHT22;11207;59.512;18.050;2023-05-07T08:53:26;12.10;91.10
22081;DHT22;11207;59.512;18.050;2023-05-07T08:55:52;12.20;89.30
22081;DHT22;11207;59.512;18.050;2023-05-07T08:58:18;12.20;91.40
22081;DHT22;11207;59.512;18.050;2023-05-07T09:00:44;12.20;81.20
22081;DHT22;11207;59.512;18.050;2023-05-07T09:03:10;12.40;89.50
22081;DHT22;11207;59.512;18.050;2023-05-07T09:05:39;12.40;81.30
22081;DHT22;11207;59.512;18.050;2023-05-07T09:08:06;12.80;90.40
22081;DHT22;11207;59.512;18.050;2023-05-07T09:10:34;13.20;92.30
22081;DHT22;11207;59.512;18.050;2023-05-07T09:12:59;13.20;85.70
22081;DHT22;11207;59.512;18.050;2023-05-07T09:15:26;13.10;77.00
22081;DHT22;11207;59.512;18.050;2023-05-07T09:17:53;13.30;86.80
22081;DHT22;11207;59.512;18.050;2023-05-07T09:20:19;13.40;83.80
22081;DHT22;11207;59.512;18.050;2023-05-07T09:22:45;13.60;90.10
22081;DHT22;11207;59.512;18.050;2023-05-07T09:25:10;13.30;75.00
22081;DHT22;11207;59.512;18.050;2023-05-07T09:27:36;13.30;81.60
22081;DHT22;11207;59.512;18.050;2023-05-07T09:30:06;13.70;78.00
22081;DHT22;11207;59.512;18.050;2023-05-07T09:32:36;13.40;72.20
22081;DHT22;11207;59.512;18.050;2023-05-07T09:35:03;13.20;73.50
22081;DHT22;11207;59.512;18.050;2023-05-07T09:37:31;13.30;74.60
22081;DHT22;11207;59.512;18.050;2023-05-07T09:39:57;13.40;73.20
22081;DHT22;11207;59.512;18.050;2023-05-07T09:42:24;13.60;75.70
22081;DHT22;11207;59.512;18.050;2023-05-07T09:44:52;13.60;80.10
22081;DHT22;11207;59.512;18.050;2023-05-07T09:47:23;13.70;79.00
22081;DHT22;11207;59.512;18.050;2023-05-07T09:49:50;13.80;73.40
22081;DHT22;11207;59.512;18.050;2023-05-07T09:52:18;14.30;94.60
22081;DHT22;11207;59.512;18.050;2023-05-07T09:54:45;14.40;88.40
22081;DHT22;11207;59.512;18.050;2023-05-07T09:57:13;14.70;79.80
22081;DHT22;11207;59.512;18.050;2023-05-07T09:59:43;14.40;65.40
22081;DHT22;11207;59.512;18.050;2023-05-07T10:02:09;14.90;82.80
22081;DHT22;11207;59.512;18.050;2023-05-07T10:04:35;15.10;91.60
22081;DHT22;11207;59.512;18.050;2023-05-07T10:07:03;15.50;78.90
22081;DHT22;11207;59.512;18.050;2023-05-07T10:09:30;15.50;76.50
22081;DHT22;11207;59.512;18.050;2023-05-07T10:11:57;16.00;95.60
22081;DHT22;11207;59.512;18.050;2023-05-07T10:14:24;15.70;71.90
22081;DHT22;11207;59.512;18.050;2023-05-07T10:16:51;16.40;83.40
22081;DHT22;11207;59.512;18.050;2023-05-07T10:19:18;16.30;67.40
22081;DHT22;11207;59.512;18.050;2023-05-07T10:22:05;15.90;67.20
22081;DHT22;11207;59.512;18.050;2023-05-07T10:24:36;16.00;67.00
22081;DHT22;11207;59.512;18.050;2023-05-07T10:27:11;15.80;74.80
22081;DHT22;11207;59.512;18.050;2023-05-07T10:32:46;16.00;82.60
22081;DHT22;11207;59.512;18.050;2023-05-07T10:35:19;16.40;66.90
22081;DHT22;11207;59.512;18.050;2023-05-07T10:37:46;17.10;91.40
22081;DHT22;11207;59.512;18.050;2023-05-07T10:40:26;17.20;59.20
22081;DHT22;11207;59.512;18.050;2023-05-07T10:42:56;17.50;75.00
22081;DHT22;11207;59.512;18.050;2023-05-07T10:45:22;17.60;64.80
22081;DHT22;11207;59.512;18.050;2023-05-07T10:50:34;16.90;75.70
22081;DHT22;11207;59.512;18.050;2023-05-07T10:55:45;16.70;63.60
22081;DHT22;11207;59.512;18.050;2023-05-07T10:58:24;16.10;60.80
22081;DHT22;11207;59.512;18.050;2023-05-07T11:00:58;16.10;59.50
22081;DHT22;11207;59.512;18.050;2023-05-07T11:03:24;15.40;59.10
22081;DHT22;11207;59.512;18.050;2023-05-07T11:08:55;15.10;57.60
22081;DHT22;11207;59.512;18.050;2023-05-07T11:11:44;15.10;58.50
22081;DHT22;11207;59.512;18.050;2023-05-07T11:14:10;14.80;57.90
22081;DHT22;11207;59.512;18.050;2023-05-07T11:16:36;14.90;73.20
22081;DHT22;11207;59.512;18.050;2023-05-07T11:19:03;15.70;69.30
22081;DHT22;11207;59.512;18.050;2023-05-07T11:21:40;15.80;60.00
22081;DHT22;11207;59.512;18.050;2023-05-07T11:24:07;16.20;93.80
22081;DHT22;11207;59.512;18.050;2023-05-07T11:26:48;15.70;58.70
22081;DHT22;11207;59.512;18.050;2023-05-07T11:29:19;15.90;66.80
22081;DHT22;11207;59.512;18.050;2023-05-07T11:31:52;16.00;62.30
22081;DHT22;11207;59.512;18.050;2023-05-07T11:34:26;16.80;70.30
22081;DHT22;11207;59.512;18.050;2023-05-07T11:36:52;17.30;61.60
22081;DHT22;11207;59.512;18.050;2023-05-07T11:39:31;16.80;56.20
22081;DHT22;11207;59.512;18.050;2023-05-07T11:41:59;16.90;63.50
22081;DHT22;11207;59.512;18.050;2023-05-07T11:44:25;17.30;76.70
22081;DHT22;11207;59.512;18.050;2023-05-07T11:47:04;17.30;61.30
22081;DHT22;11207;59.512;18.050;2023-05-07T11:49:30;16.20;54.30
22081;DHT22;11207;59.512;18.050;2023-05-07T11:51:56;16.10;61.80
22081;DHT22;11207;59.512;18.050;2023-05-07T11:54:22;16.70;63.80
22081;DHT22;11207;59.512;18.050;2023-05-07T11:56:47;17.10;58.60
22081;DHT22;11207;59.512;18.050;2023-05-07T11:59:17;16.50;60.40
22081;DHT22;11207;59.512;18.050;2023-05-07T12:01:45;17.10;73.40
22081;DHT22;11207;59.512;18.050;2023-05-07T12:04:11;17.10;62.50
22081;DHT22;11207;59.512;18.050;2023-05-07T12:06:37;17.60;63.60
22081;DHT22;11207;59.512;18.050;2023-05-07T12:09:05;18.00;58.20
22081;DHT22;11207;59.512;18.050;2023-05-07T12:11:33;17.70;62.00
22081;DHT22;11207;59.512;18.050;2023-05-07T12:13:59;17.90;60.00
22081;DHT22;11207;59.512;18.050;2023-05-07T12:16:26;18.10;57.90
22081;DHT22;11207;59.512;18.050;2023-05-07T12:18:54;18.00;56.60
22081;DHT22;11207;59.512;18.050;2023-05-07T12:21:23;17.70;58.50
22081;DHT22;11207;59.512;18.050;2023-05-07T12:23:53;17.30;57.50
22081;DHT22;11207;59.512;18.050;2023-05-07T12:26:25;16.90;62.10
22081;DHT22;11207;59.512;18.050;2023-05-07T12:28:52;16.70;53.70
22081;DHT22;11207;59.512;18.050;2023-05-07T12:31:20;16.20;55.20
22081;DHT22;11207;59.512;18.050;2023-05-07T12:33:47;15.90;58.70
22081;DHT22;11207;59.512;18.050;2023-05-07T12:36:14;16.10;60.60
22081;DHT22;11207;59.512;18.050;2023-05-07T12:38:40;16.20;61.00
22081;DHT22;11207;59.512;18.050;2023-05-07T12:41:08;16.30;59.80
22081;DHT22;11207;59.512;18.050;2023-05-07T12:43:34;16.10;60.20
22081;DHT22;11207;59.512;18.050;2023-05-07T12:46:05;16.50;57.90
22081;DHT22;11207;59.512;18.050;2023-05-07T12:48:37;16.00;57.70
22081;DHT22;11207;59.512;18.050;2023-05-07T12:51:06;15.70;58.40
22081;DHT22;11207;59.512;18.050;2023-05-07T12:53:40;16.10;60.10
22081;DHT22;11207;59.512;18.050;2023-05-07T12:56:09;16.30;58.60
22081;DHT22;11207;59.512;18.050;2023-05-07T12:58:36;15.90;58.20
22081;DHT22;11207;59.512;18.050;2023-05-07T13:01:07;15.80;60.50
22081;DHT22;11207;59.512;18.050;2023-05-07T13:03:35;15.80;57.90
22081;DHT22;11207;59.512;18.050;2023-05-07T13:06:04;15.80;58.70
22081;DHT22;11207;59.512;18.050;2023-05-07T13:08:35;15.70;59.30
22081;DHT22;11207;59.512;18.050;2023-05-07T13:11:04;15.90;58.40
22081;DHT22;11207;59.512;18.050;2023-05-07T13:13:33;15.70;56.60
22081;DHT22;11207;59.512;18.050;2023-05-07T13:16:00;15.60;57.20
22081;DHT22;11207;59.512;18.050;2023-05-07T13:18:29;15.10;57.60
22081;DHT22;11207;59.512;18.050;2023-05-07T13:20:56;14.50;57.80
22081;DHT22;11207;59.512;18.050;2023-05-07T13:23:22;14.70;62.70
22081;DHT22;11207;59.512;18.050;2023-05-07T13:25:49;14.60;58.40
22081;DHT22;11207;59.512;18.050;2023-05-07T13:28:16;14.70;62.20
22081;DHT22;11207;59.512;18.050;2023-05-07T13:30:42;14.90;59.20
22081;DHT22;11207;59.512;18.050;2023-05-07T13:33:08;15.00;55.70
22081;DHT22;11207;59.512;18.050;2023-05-07T13:35:37;15.10;55.30
22081;DHT22;11207;59.512;18.050;2023-05-07T13:38:03;15.20;52.60
22081;DHT22;11207;59.512;18.050;2023-05-07T13:40:29;15.10;51.90
22081;DHT22;11207;59.512;18.050;2023-05-07T13:42:57;15.00;50.10
22081;DHT22;11207;59.512;18.050;2023-05-07T13:45:24;14.80;52.80
22081;DHT22;11207;59.512;18.050;2023-05-07T13:47:51;15.10;54.40
22081;DHT22;11207;59.512;18.050;2023-05-07T13:50:17;15.00;52.20
22081;DHT22;11207;59.512;18.050;2023-05-07T13:52:44;15.10;51.90
22081;DHT22;11207;59.512;18.050;2023-05-07T13:55:20;15.00;51.00
22081;DHT22;11207;59.512;18.050;2023-05-07T13:57:46;15.10;54.50
22081;DHT22;11207;59.512;18.050;2023-05-07T14:00:13;15.00;51.50
22081;DHT22;11207;59.512;18.050;2023-05-07T14:02:39;15.00;54.90
22081;DHT22;11207;59.512;18.050;2023-05-07T14:05:06;14.90;53.60
22081;DHT22;11207;59.512;18.050;2023-05-07T14:07:31;14.90;55.80
22081;DHT22;11207;59.512;18.050;2023-05-07T14:09:57;14.80;56.10
22081;DHT22;11207;59.512;18.050;2023-05-07T14:12:23;14.90;56.40
22081;DHT22;11207;59.512;18.050;2023-05-07T14:14:48;14.90;55.40
22081;DHT22;11207;59.512;18.050;2023-05-07T14:17:18;14.80;55.50
22081;DHT22;11207;59.512;18.050;2023-05-07T14:19:45;14.70;56.00
22081;DHT22;11207;59.512;18.050;2023-05-07T14:22:14;14.80;55.90
22081;DHT22;11207;59.512;18.050;2023-05-07T14:24:40;14.60;55.20
22081;DHT22;11207;59.512;18.050;2023-05-07T14:27:06;14.60;56.30
22081;DHT22;11207;59.512;18.050;2023-05-07T14:29:32;14.60;56.10
22081;DHT22;11207;59.512;18.050;2023-05-07T14:31:57;14.70;58.00
22081;DHT22;11207;59.512;18.050;2023-05-07T14:34:23;14.60;57.60
22081;DHT22;11207;59.512;18.050;2023-05-07T14:36:49;14.50;56.40
22081;DHT22;11207;59.512;18.050;2023-05-07T14:39:14;14.30;56.20
22081;DHT22;11207;59.512;18.050;2023-05-07T14:41:40;14.30;57.40
22081;DHT22;11207;59.512;18.050;2023-05-07T14:44:05;14.30;56.30
22081;DHT22;11207;59.512;18.050;2023-05-07T14:46:31;14.20;57.10
22081;DHT22;11207;59.512;18.050;2023-05-07T14:48:57;14.30;57.50
22081;DHT22;11207;59.512;18.050;2023-05-07T14:51:23;14.30;58.00
22081;DHT22;11207;59.512;18.050;2023-05-07T14:53:50;14.40;57.40
22081;DHT22;11207;59.512;18.050;2023-05-07T14:56:16;14.30;56.90
22081;DHT22;11207;59.512;18.050;2023-05-07T14:58:42;14.30;57.10
22081;DHT22;11207;59.512;18.050;2023-05-07T15:01:08;14.30;57.00
22081;DHT22;11207;59.512;18.050;2023-05-07T15:03:34;14.20;58.20
22081;DHT22;11207;59.512;18.050;2023-05-07T15:06:01;14.10;57.40
22081;DHT22;11207;59.512;18.050;2023-05-07T15:08:27;14.00;58.10
22081;DHT22;11207;59.512;18.050;2023-05-07T15:10:53;14.00;58.70
22081;DHT22;11207;59.512;18.050;2023-05-07T15:13:20;13.90;58.10
22081;DHT22;11207;59.512;18.050;2023-05-07T15:15:46;13.90;58.30
22081;DHT22;11207;59.512;18.050;2023-05-07T15:18:11;14.00;58.20
22081;DHT22;11207;59.512;18.050;2023-05-07T15:20:37;14.00;58.30
22081;DHT22;11207;59.512;18.050;2023-05-07T15:23:03;14.00;57.70
22081;DHT22;11207;59.512;18.050;2023-05-07T15:25:31;13.90;57.50
22081;DHT22;11207;59.512;18.050;2023-05-07T15:27:58;13.80;57.70
22081;DHT22;11207;59.512;18.050;2023-05-07T15:30:23;13.90;57.90
22081;DHT22;11207;59.512;18.050;2023-05-07T15:32:49;13.80;58.90